createdAt,value
2018-12-07T00:00:17.216Z,941.86
2018-12-07T00:01:18.622Z,941.85
2018-12-07T00:02:19.516Z,941.85
2018-12-07T00:03:20.641Z,941.85
2018-12-07T00:04:21.045Z,941.8
2018-12-07T00:05:21.523Z,941.84
2018-12-07T00:06:22.485Z,941.81
2018-12-07T00:07:22.721Z,941.82
2018-12-07T00:08:23.683Z,941.79
2018-12-07T00:09:24.639Z,941.8
2018-12-07T00:10:25.324Z,941.8
2018-12-07T00:11:26.368Z,941.84
2018-12-07T00:12:27.017Z,941.81
2018-12-07T00:13:27.703Z,941.77
2018-12-07T00:14:28.106Z,941.76
2018-12-07T00:15:29.070Z,941.75
2018-12-07T00:16:30.423Z,941.73
2018-12-07T00:17:31.106Z,941.71
2018-12-07T00:18:32.062Z,941.7
2018-12-07T00:19:33.049Z,941.66
2018-12-07T00:20:33.724Z,941.66
2018-12-07T00:21:34.403Z,941.65
2018-12-07T00:22:35.774Z,941.67
2018-12-07T00:23:36.731Z,941.68
2018-12-07T00:24:37.411Z,941.67
2018-12-07T00:25:38.535Z,941.61
2018-12-07T00:26:39.012Z,941.7
2018-12-07T00:27:39.968Z,941.7
2018-12-07T00:28:40.930Z,941.7
2018-12-07T00:29:41.887Z,941.7
2018-12-07T00:30:43.015Z,941.68
2018-12-07T00:31:43.419Z,941.65
2018-12-07T00:32:43.849Z,941.63
2018-12-07T00:33:44.249Z,941.63
2018-12-07T00:34:45.374Z,941.58
2018-12-07T00:35:46.504Z,941.56
2018-12-07T00:36:47.629Z,941.58
2018-12-07T00:37:48.032Z,941.54
2018-12-07T00:38:48.994Z,941.59
2018-12-07T00:39:49.673Z,941.51
2018-12-07T00:40:50.355Z,941.52
2018-12-07T00:41:51.483Z,941.54
2018-12-07T00:42:52.578Z,941.54
2018-12-07T00:43:53.704Z,941.54
2018-12-07T00:44:54.108Z,941.5
2018-12-07T00:45:54.788Z,941.52
2018-12-07T00:46:55.190Z,941.49
2018-12-07T00:47:55.596Z,941.5
2018-12-07T00:48:56.553Z,941.49
2018-12-07T00:49:57.593Z,941.49
2018-12-07T00:50:57.997Z,941.49
2018-12-07T00:51:58.481Z,941.44
2018-12-07T00:52:58.735Z,941.43
2018-12-07T00:53:58.921Z,941.41
2018-12-07T00:54:59.605Z,941.47
2018-12-07T00:56:00.288Z,941.47
2018-12-07T00:57:00.692Z,941.42
2018-12-07T00:58:01.094Z,941.4
2018-12-07T00:59:02.059Z,941.4
2018-12-07T01:00:03.022Z,941.35
2018-12-07T01:01:03.980Z,941.42
2018-12-07T01:02:05.105Z,941.45
2018-12-07T01:03:05.460Z,941.41
2018-12-07T01:04:05.864Z,941.33
2018-12-07T01:05:07.106Z,941.3
2018-12-07T01:06:07.785Z,941.33
2018-12-07T01:07:08.518Z,941.36
2018-12-07T01:08:08.917Z,941.31
2018-12-07T01:09:09.321Z,941.25
2018-12-07T01:10:09.727Z,941.25
2018-12-07T06:53:47.817Z,938.84
2018-12-07T06:54:48.836Z,938.82
2018-12-07T06:55:50.250Z,938.87
2018-12-07T06:56:50.726Z,938.81
2018-12-07T06:57:51.425Z,938.83
2018-12-07T06:58:52.113Z,938.84
2018-12-07T06:59:53.250Z,938.86
2018-12-07T07:00:54.242Z,938.86
2018-12-07T07:01:55.024Z,938.87
2018-12-07T07:02:55.550Z,938.86
2018-12-07T07:03:56.098Z,938.83
2018-12-07T07:04:56.362Z,938.85
2018-12-07T07:05:56.873Z,938.84
2018-12-07T07:06:57.331Z,938.83
2018-12-07T07:07:59.448Z,938.79
2018-12-07T07:08:10.326Z,938.84
2018-12-07T07:09:10.686Z,938.84
2018-12-07T07:10:11.571Z,938.84
2018-12-07T07:11:12.597Z,938.88
2018-12-07T07:12:13.565Z,938.85
2018-12-07T07:13:14.262Z,938.83
2018-12-07T07:14:16.510Z,938.82
2018-12-07T07:14:27.519Z,938.79
2018-12-07T07:15:27.483Z,938.78
2018-12-07T07:16:28.454Z,938.79
2018-12-07T07:17:29.151Z,938.79
2018-12-07T07:18:29.805Z,938.81
2018-12-07T07:19:30.222Z,938.82
2018-12-07T07:20:30.913Z,938.84
2018-12-07T07:21:31.328Z,938.84
2018-12-07T07:22:32.053Z,938.83
2018-12-07T07:23:33.023Z,938.8
2018-12-07T07:24:33.711Z,938.79
2018-12-07T07:25:34.102Z,938.81
2018-12-07T07:26:35.073Z,938.76
2018-12-07T07:27:36.041Z,938.76
2018-12-07T07:28:36.736Z,938.77
2018-12-07T07:29:37.714Z,938.75
2018-12-07T07:30:38.685Z,938.72
2018-12-07T07:31:43.870Z,938.73
2018-12-07T07:32:44.571Z,938.73
2018-12-07T07:33:44.986Z,938.74
2018-12-07T07:34:45.427Z,938.71
2018-12-07T07:35:46.541Z,938.74
2018-12-07T07:36:46.788Z,938.68
2018-12-07T07:37:47.410Z,938.7
2018-12-07T07:38:48.465Z,938.68
2018-12-07T07:39:48.884Z,938.7
2018-12-07T07:42:34.221Z,938.67
2018-12-07T07:43:35.364Z,938.67
2018-12-07T07:44:36.336Z,938.64
2018-12-07T07:45:37.308Z,938.68
2018-12-07T07:46:37.728Z,938.57
2018-12-07T07:47:38.698Z,938.61
2018-12-07T07:48:39.845Z,938.57
2018-12-07T07:49:40.538Z,938.52
2018-12-07T07:50:40.956Z,938.49
2018-12-07T07:51:42.013Z,938.5
2018-12-07T07:52:42.690Z,938.48
2018-12-07T07:53:43.663Z,938.5
2018-12-07T07:54:44.355Z,938.53
2018-12-07T07:55:45.498Z,938.49
2018-12-07T07:56:45.913Z,938.48
2018-12-07T07:57:46.883Z,938.44
2018-12-07T07:58:47.301Z,938.46
2018-12-07T07:59:47.723Z,938.5
2018-12-07T08:00:48.699Z,938.48
2018-12-07T08:01:49.033Z,938.48
2018-12-07T08:02:49.362Z,938.49
2018-12-07T08:03:50.054Z,938.48
2018-12-07T08:04:50.748Z,938.51
2018-12-07T08:05:51.733Z,938.43
2018-12-07T08:06:52.148Z,938.4
2018-12-07T08:07:52.567Z,938.42
2018-12-07T08:08:52.799Z,938.4
2018-12-07T08:09:53.934Z,938.4
2018-12-07T08:10:54.354Z,938.43
2018-12-07T08:11:55.055Z,938.39
2018-12-07T08:12:55.625Z,938.43
2018-12-07T08:13:55.969Z,938.43
2018-12-07T08:14:56.381Z,938.38
2018-12-07T08:15:56.798Z,938.33
2018-12-07T08:16:57.777Z,938.34
2018-12-07T08:17:58.915Z,938.35
2018-12-07T08:19:00.055Z,938.28
2018-12-07T08:20:00.471Z,938.29
2018-12-07T08:21:01.164Z,938.3
2018-12-07T08:22:03.499Z,938.25
2018-12-07T08:23:04.447Z,938.23
2018-12-07T08:24:05.188Z,938.23
2018-12-07T08:25:06.197Z,938.2
2018-12-07T08:26:06.614Z,938.2
2018-12-07T08:27:07.754Z,938.2
2018-12-07T08:28:08.449Z,938.19
2018-12-07T08:29:09.146Z,938.14
2018-12-07T08:30:09.857Z,938.13
2018-12-07T08:31:10.995Z,938.08
2018-12-07T08:32:11.689Z,938.06
2018-12-07T08:33:12.071Z,938.08
2018-12-07T08:34:13.222Z,938.03
2018-12-07T08:35:13.638Z,938
2018-12-07T08:36:14.340Z,937.97
2018-12-07T08:37:15.313Z,938.01
2018-12-07T08:38:16.012Z,937.94
2018-12-07T08:39:16.428Z,937.99
2018-12-07T08:40:17.121Z,938
2018-12-07T08:41:18.424Z,937.96
2018-12-07T08:42:19.564Z,937.92
2018-12-07T08:43:20.131Z,937.91
2018-12-07T08:44:21.381Z,937.92
2018-12-07T08:45:22.385Z,937.87
2018-12-07T08:46:23.361Z,937.83
2018-12-07T08:47:24.064Z,937.8
2018-12-07T08:50:26.009Z,937.83
2018-12-07T08:51:26.247Z,937.84
2018-12-07T08:52:27.370Z,937.82
2018-12-07T08:53:28.069Z,937.78
2018-12-07T08:54:29.048Z,937.76
2018-12-07T08:55:29.453Z,937.77
2018-12-07T08:56:30.783Z,937.72
2018-12-07T08:57:31.197Z,937.73
2018-12-07T08:58:32.246Z,937.67
2018-12-07T08:59:32.652Z,937.69
2018-12-07T09:00:33.053Z,937.62
2018-12-07T09:01:34.292Z,937.58
2018-12-07T09:04:48.664Z,937.52
2018-12-07T09:05:49.343Z,937.49
2018-12-07T09:06:50.309Z,937.47
2018-12-07T09:07:51.078Z,937.43
2018-12-07T09:08:52.313Z,937.43
2018-12-07T09:09:53.275Z,937.41
2018-12-07T09:10:54.403Z,937.4
2018-12-07T09:11:55.089Z,937.36
2018-12-07T09:12:55.333Z,937.35
2018-12-07T09:13:56.436Z,937.32
2018-12-07T09:14:56.844Z,937.35
2018-12-07T09:15:57.967Z,937.35
2018-12-07T09:16:58.376Z,937.28
2018-12-07T09:17:59.508Z,937.3
2018-12-07T09:19:00.037Z,937.27
2018-12-07T09:20:00.998Z,937.25
2018-12-07T09:21:01.975Z,937.28
2018-12-07T09:22:02.655Z,937.2
2018-12-07T09:23:02.984Z,937.22
2018-12-07T09:24:03.277Z,937.17
2018-12-07T09:25:04.654Z,937.14
2018-12-07T09:25:16.380Z,937.12
2018-12-07T09:26:16.444Z,937.1
2018-12-07T09:27:17.134Z,937.14
2018-12-07T09:28:17.544Z,937.09
2018-12-07T09:29:18.782Z,937.09
2018-12-07T09:30:19.025Z,937.07
2018-12-07T09:31:19.712Z,937.01
2018-12-07T09:32:20.176Z,937.01
2018-12-07T09:33:20.749Z,937.04
2018-12-07T09:34:21.992Z,937
2018-12-07T09:35:22.953Z,936.99
2018-12-07T09:36:23.779Z,937.03
2018-12-07T09:37:25.019Z,937.07
2018-12-07T09:38:25.727Z,937.03
2018-12-07T09:39:25.982Z,937.03
2018-12-07T09:40:26.393Z,936.96
2018-12-07T09:41:26.802Z,936.95
2018-12-07T09:42:27.063Z,936.98
2018-12-07T09:43:27.756Z,936.95
2018-12-07T09:44:30.104Z,936.92
2018-12-07T09:45:30.982Z,936.81
2018-12-07T09:45:42.508Z,936.84
2018-12-07T09:46:44.396Z,936.84
2018-12-07T09:47:44.705Z,936.82
2018-12-07T09:48:45.393Z,936.81
2018-12-07T09:49:46.088Z,936.82
2018-12-07T09:50:47.045Z,936.78
2018-12-07T09:51:47.462Z,936.77
2018-12-07T09:52:48.156Z,936.68
2018-12-07T09:53:49.310Z,936.72
2018-12-07T09:54:50.019Z,936.68
2018-12-07T09:55:50.425Z,936.66
2018-12-07T09:56:51.264Z,936.67
2018-12-07T09:57:52.329Z,936.63
2018-12-07T09:58:53.285Z,936.65
2018-12-07T09:59:53.974Z,936.62
2018-12-07T10:00:54.657Z,936.57
2018-12-07T10:01:55.069Z,936.56
2018-12-07T10:02:55.754Z,936.54
2018-12-07T10:03:56.719Z,936.6
2018-12-07T10:04:57.685Z,936.5
2018-12-07T10:05:58.382Z,936.51
2018-12-07T10:06:58.747Z,936.47
2018-12-07T10:07:59.494Z,936.42
2018-12-07T10:09:00.494Z,936.45
2018-12-07T10:10:00.740Z,936.41
2018-12-07T10:11:01.222Z,936.38
2018-12-07T10:12:01.920Z,936.36
2018-12-07T10:13:08.627Z,936.35
2018-12-07T10:13:14.671Z,936.34
2018-12-07T10:14:15.783Z,936.3
2018-12-07T10:15:16.279Z,936.28
2018-12-07T10:16:16.968Z,936.24
2018-12-07T10:17:17.650Z,936.2
2018-12-07T10:18:18.061Z,936.21
2018-12-07T10:19:18.748Z,936.11
2018-12-07T10:20:19.289Z,936.08
2018-12-07T10:21:19.533Z,936.06
2018-12-07T10:22:20.227Z,936.08
2018-12-07T10:23:20.631Z,936.05
2018-12-07T10:24:22.037Z,935.99
2018-12-07T10:25:24.047Z,935.98
2018-12-07T10:26:24.819Z,936.04
2018-12-07T10:27:25.506Z,936
2018-12-07T10:28:26.473Z,936.02
2018-12-07T10:29:26.886Z,935.96
2018-12-07T10:30:27.879Z,935.94
2018-12-07T10:31:29.873Z,935.93
2018-12-07T10:31:41.176Z,935.91
2018-12-07T10:32:41.519Z,935.83
2018-12-07T10:33:41.928Z,935.84
2018-12-07T10:34:43.058Z,935.85
2018-12-07T10:35:44.192Z,935.83
2018-12-07T10:36:44.897Z,935.78
2018-12-07T10:37:45.577Z,935.79
2018-12-07T10:38:46.261Z,935.78
2018-12-07T10:39:46.670Z,935.73
2018-12-07T10:40:47.081Z,935.77
2018-12-07T10:41:47.774Z,935.71
2018-12-07T10:42:48.585Z,935.71
2018-12-07T10:43:49.029Z,935.66
2018-12-07T10:44:49.227Z,935.68
2018-12-07T10:45:49.660Z,935.66
2018-12-07T10:46:50.627Z,935.63
2018-12-07T10:47:51.035Z,935.67
2018-12-07T10:48:52.164Z,935.69
2018-12-07T10:49:53.295Z,935.68
2018-12-07T10:50:54.258Z,935.66
2018-12-07T10:51:54.671Z,935.67
2018-12-07T10:52:54.926Z,935.69
2018-12-07T10:53:55.986Z,935.68
2018-12-07T10:54:56.457Z,935.7
2018-12-07T10:55:56.877Z,935.69
2018-12-07T10:56:58.089Z,935.65
2018-12-07T10:57:58.612Z,935.7
2018-12-07T10:58:59.736Z,935.67
2018-12-07T10:59:59.977Z,935.7
2018-12-07T11:01:00.161Z,935.7
2018-12-07T11:02:01.064Z,935.69
2018-12-07T11:03:01.761Z,935.68
2018-12-07T11:04:02.608Z,935.68
2018-12-07T11:05:02.883Z,935.63
2018-12-07T11:06:03.535Z,935.63
2018-12-07T11:07:04.283Z,935.62
2018-12-07T11:08:05.317Z,935.55
2018-12-07T11:09:05.890Z,935.56
2018-12-07T11:10:06.081Z,935.52
2018-12-07T11:11:06.773Z,935.53
2018-12-07T11:12:07.184Z,935.51
2018-12-07T11:13:08.081Z,935.49
2018-12-07T11:14:08.629Z,935.55
2018-12-07T11:15:09.048Z,935.51
2018-12-07T11:16:09.455Z,935.51
2018-12-07T11:17:10.137Z,935.51
2018-12-07T11:18:10.546Z,935.48
2018-12-07T11:19:10.982Z,935.51
2018-12-07T11:20:11.680Z,935.44
2018-12-07T11:21:12.366Z,935.45
2018-12-07T11:22:12.615Z,935.4
2018-12-07T11:23:12.949Z,935.42
2018-12-07T11:24:13.925Z,935.41
2018-12-07T11:25:14.445Z,935.38
2018-12-07T11:26:14.665Z,935.33
2018-12-07T11:27:15.014Z,935.31
2018-12-07T11:28:16.146Z,935.25
2018-12-07T11:29:16.841Z,935.21
2018-12-07T11:30:17.805Z,935.16
2018-12-07T11:31:18.936Z,935.14
2018-12-07T11:32:20.082Z,935.09
2018-12-07T11:33:20.621Z,935.08
2018-12-07T11:34:21.368Z,935.05
2018-12-07T11:35:21.982Z,935.01
2018-12-07T11:36:22.776Z,934.98
2018-12-07T11:37:23.196Z,934.96
2018-12-07T11:38:24.353Z,934.9
2018-12-07T11:39:25.317Z,934.89
2018-12-07T11:40:25.847Z,934.81
2018-12-07T11:41:26.076Z,934.75
2018-12-07T11:42:26.772Z,934.72
2018-12-07T11:43:27.303Z,934.74
2018-12-07T11:44:27.720Z,934.71
2018-12-07T11:45:28.714Z,934.7
2018-12-07T11:46:29.402Z,934.64
2018-12-07T11:47:30.535Z,934.6
2018-12-07T11:48:30.943Z,934.59
2018-12-07T11:49:31.632Z,934.56
2018-12-07T11:50:32.319Z,934.53
2018-12-07T11:51:33.314Z,934.51
2018-12-07T11:52:35.623Z,934.47
2018-12-07T11:52:46.721Z,934.45
2018-12-07T11:53:47.221Z,934.42
2018-12-07T11:54:48.235Z,934.44
2018-12-07T11:55:48.936Z,934.38
2018-12-07T11:56:50.067Z,934.38
2018-12-07T11:57:50.797Z,934.37
2018-12-07T11:58:52.104Z,934.32
2018-12-07T11:59:52.900Z,934.33
2018-12-07T12:00:54.037Z,934.33
2018-12-07T12:01:54.729Z,934.32
2018-12-07T12:02:55.140Z,934.34
2018-12-07T12:03:55.978Z,934.31
2018-12-07T12:04:56.397Z,934.27
2018-12-07T12:05:56.806Z,934.26
2018-12-07T12:06:57.142Z,934.23
2018-12-07T12:07:57.610Z,934.22
2018-12-07T12:08:58.377Z,934.17
2018-12-07T12:09:58.867Z,934.17
2018-12-07T12:10:59.255Z,934.11
2018-12-07T12:12:00.226Z,934.09
2018-12-07T12:13:00.724Z,934.07
2018-12-07T12:14:01.145Z,934.02
2018-12-07T12:15:02.109Z,934
2018-12-07T12:16:02.519Z,934
2018-12-07T12:17:02.909Z,933.92
2018-12-07T12:18:04.049Z,933.91
2018-12-07T12:19:04.474Z,933.89
2018-12-07T12:20:05.106Z,933.86
2018-12-07T12:21:06.543Z,933.8
2018-12-07T12:22:08.247Z,933.79
2018-12-07T12:23:09.447Z,933.77
2018-12-07T12:24:10.001Z,933.74
2018-12-07T12:25:10.966Z,933.71
2018-12-07T12:26:11.931Z,933.66
2018-12-07T12:27:12.895Z,933.63
2018-12-07T12:28:13.594Z,933.63
2018-12-07T12:29:14.343Z,933.62
2018-12-07T12:30:14.533Z,933.57
2018-12-07T12:31:15.337Z,933.59
2018-12-07T12:32:15.822Z,933.55
2018-12-07T12:33:16.111Z,933.49
2018-12-07T12:34:16.375Z,933.48
2018-12-07T12:35:16.957Z,933.5
2018-12-07T12:36:18.018Z,933.42
2018-12-07T12:37:18.712Z,933.34
2018-12-07T12:38:19.142Z,933.33
2018-12-07T12:39:19.395Z,933.3
2018-12-07T12:40:19.640Z,933.27
2018-12-07T12:41:20.606Z,933.28
2018-12-07T12:42:23.131Z,933.23
2018-12-07T12:43:24.189Z,933.2
2018-12-07T12:44:24.861Z,933.11
2018-12-07T12:45:25.600Z,933.09
2018-12-07T12:46:26.645Z,933.06
2018-12-07T12:47:27.757Z,933.05
2018-12-07T12:48:28.950Z,933.05
2018-12-07T12:49:29.432Z,933.01
2018-12-07T12:50:30.566Z,932.98
2018-12-07T12:51:31.535Z,932.95
2018-12-07T12:52:32.466Z,932.95
2018-12-07T12:53:33.608Z,932.88
2018-12-07T12:54:34.433Z,932.83
2018-12-07T12:55:34.849Z,932.81
2018-12-07T12:56:35.934Z,932.81
2018-12-07T12:57:36.339Z,932.79
2018-12-07T12:58:36.758Z,932.79
2018-12-07T12:59:37.177Z,932.75
2018-12-07T13:00:38.378Z,932.71
2018-12-07T13:01:39.451Z,932.66
2018-12-07T13:02:40.244Z,932.64
2018-12-07T13:03:41.034Z,932.64
2018-12-07T13:04:41.806Z,932.61
2018-12-07T13:05:44.314Z,932.58
2018-12-07T13:06:45.450Z,932.58
2018-12-07T13:07:46.285Z,932.53
2018-12-07T13:08:46.975Z,932.5
2018-12-07T13:09:48.106Z,932.43
2018-12-07T13:10:48.299Z,932.42
2018-12-07T13:11:48.990Z,932.34
2018-12-07T13:12:49.975Z,932.35
2018-12-07T13:13:50.664Z,932.33
2018-12-07T13:14:51.710Z,932.33
2018-12-07T13:15:52.727Z,932.3
2018-12-07T13:16:53.692Z,932.3
2018-12-07T13:17:54.182Z,932.3
2018-12-07T13:18:55.462Z,932.34
2018-12-07T13:19:56.083Z,932.3
2018-12-07T13:20:56.506Z,932.27
2018-12-07T13:21:56.981Z,932.26
2018-12-07T13:22:57.745Z,932.26
2018-12-07T13:23:59.061Z,932.21
2018-12-07T13:25:00.186Z,932.29
2018-12-07T13:26:00.941Z,932.3
2018-12-07T13:27:01.561Z,932.29
2018-12-07T13:28:02.859Z,932.25
2018-12-07T13:29:03.551Z,932.28
2018-12-07T13:30:03.974Z,932.22
2018-12-07T13:31:05.061Z,932.23
2018-12-07T13:32:05.526Z,932.29
2018-12-07T13:33:05.941Z,932.21
2018-12-07T13:34:06.307Z,932.17
2018-12-07T13:35:07.027Z,932.16
2018-12-07T13:36:07.716Z,932.11
2018-12-07T13:37:08.875Z,932.09
2018-12-07T13:38:09.597Z,932.08
2018-12-07T13:39:10.854Z,932.05
2018-12-07T13:40:12.082Z,932
2018-12-07T13:41:13.682Z,931.93
2018-12-07T13:42:14.656Z,931.87
2018-12-07T13:42:27.360Z,931.9
2018-12-07T13:42:38.899Z,931.89
2018-12-07T13:43:39.372Z,931.87
2018-12-07T13:44:39.611Z,931.87
2018-12-07T13:45:41.017Z,931.8
2018-12-07T13:46:42.104Z,931.81
2018-12-07T13:47:42.803Z,931.75
2018-12-07T13:48:44.220Z,931.72
2018-12-07T13:49:44.673Z,931.67
2018-12-07T13:50:44.789Z,931.67
2018-12-07T13:51:45.441Z,931.68
2018-12-07T13:52:46.214Z,931.65
2018-12-07T13:53:46.551Z,931.65
2018-12-07T13:54:47.651Z,931.67
2018-12-07T13:55:48.731Z,931.69
2018-12-07T13:56:49.682Z,931.68
2018-12-07T13:57:50.434Z,931.71
2018-12-07T13:58:51.725Z,931.72
2018-12-07T13:59:52.168Z,931.7
2018-12-07T14:00:53.140Z,931.68
2018-12-07T14:01:54.205Z,931.65
2018-12-07T14:02:55.421Z,931.63
2018-12-07T14:03:55.886Z,931.65
2018-12-07T14:04:57.055Z,931.64
2018-12-07T14:05:58.346Z,931.59
2018-12-07T14:06:59.712Z,931.62
2018-12-07T14:08:00.693Z,931.65
2018-12-07T14:09:01.840Z,931.66
2018-12-07T14:10:02.852Z,931.68
2018-12-07T14:11:03.683Z,931.6
2018-12-07T14:12:04.507Z,931.63
2018-12-07T14:13:05.419Z,931.56
2018-12-07T14:14:06.313Z,931.61
2018-12-07T14:15:06.686Z,931.58
2018-12-07T14:16:07.912Z,931.62
2018-12-07T14:17:09.030Z,931.63
2018-12-07T14:18:09.142Z,931.65
2018-12-07T14:19:10.832Z,931.67
2018-12-07T14:20:11.369Z,931.64
2018-12-07T14:21:11.891Z,931.63
2018-12-07T14:22:13.492Z,931.65
2018-12-07T14:23:14.316Z,931.71
2018-12-07T14:24:15.091Z,931.75
2018-12-07T14:25:15.650Z,931.77
2018-12-07T14:26:16.617Z,931.84
2018-12-07T14:27:17.675Z,931.86
2018-12-07T14:28:18.547Z,931.85
2018-12-07T14:29:19.411Z,931.88
2018-12-07T14:30:20.823Z,931.87
2018-12-07T14:31:21.082Z,931.9
2018-12-07T14:32:21.649Z,931.93
2018-12-07T14:33:22.362Z,931.87
2018-12-07T14:34:23.080Z,931.95
2018-12-07T14:35:23.911Z,931.93
2018-12-07T14:36:24.323Z,931.96
2018-12-07T14:37:25.333Z,931.94
2018-12-07T14:38:26.340Z,931.9
2018-12-07T14:39:27.175Z,931.89
2018-12-07T14:40:29.918Z,931.86
2018-12-07T14:40:40.101Z,931.8
2018-12-07T14:41:40.212Z,931.81
2018-12-07T14:42:40.577Z,931.82
2018-12-07T14:43:41.273Z,931.78
2018-12-07T14:44:42.059Z,931.82
2018-12-07T14:45:43.162Z,931.75
2018-12-07T14:46:43.936Z,931.77
2018-12-07T14:47:45.827Z,931.74
2018-12-07T14:48:45.878Z,931.73
2018-12-07T14:49:47.041Z,931.63
2018-12-07T14:50:49.259Z,931.65
2018-12-07T14:50:59.396Z,931.62
2018-12-07T14:52:00.505Z,931.64
2018-12-07T14:53:01.115Z,931.61
2018-12-07T14:54:02.083Z,931.64
2018-12-07T14:55:02.793Z,931.61
2018-12-07T14:56:03.701Z,931.59
2018-12-07T14:57:04.289Z,931.62
2018-12-07T14:58:05.168Z,931.59
2018-12-07T14:59:05.453Z,931.58
2018-12-07T15:00:06.413Z,931.58
2018-12-07T15:01:07.615Z,931.56
2018-12-07T15:02:08.726Z,931.6
2018-12-07T15:03:10.083Z,931.57
2018-12-07T15:04:10.885Z,931.55
2018-12-07T15:05:11.237Z,931.53
2018-12-07T15:06:12.586Z,931.52
2018-12-07T15:07:13.145Z,931.55
2018-12-07T15:08:14.508Z,931.53
2018-12-07T15:09:15.930Z,931.45
2018-12-07T15:10:17.410Z,931.43
2018-12-07T15:11:18.014Z,931.36
2018-12-07T15:12:19.071Z,931.36
2018-12-07T15:13:19.577Z,931.35
2018-12-07T15:14:20.652Z,931.33
2018-12-07T15:15:21.492Z,931.31
2018-12-07T15:16:22.938Z,931.29
2018-12-07T15:17:24.549Z,931.3
2018-12-07T15:18:25.911Z,931.28
2018-12-07T15:19:26.544Z,931.27
2018-12-07T15:20:27.905Z,931.26
2018-12-07T15:21:28.591Z,931.26
2018-12-07T15:22:29.664Z,931.22
2018-12-07T15:23:30.601Z,931.18
2018-12-07T15:24:32.016Z,931.17
2018-12-07T15:25:32.270Z,931.14
2018-12-07T15:26:33.625Z,931.08
2018-12-07T15:27:34.127Z,931.04
2018-12-07T15:28:35.136Z,931.06
2018-12-07T15:29:35.452Z,931
2018-12-07T15:30:36.475Z,930.97
2018-12-07T15:31:36.926Z,930.92
2018-12-07T15:32:38.067Z,930.91
2018-12-07T15:33:38.383Z,930.92
2018-12-07T15:34:39.327Z,930.92
2018-12-07T15:35:40.442Z,930.92
2018-12-07T15:36:41.876Z,930.89
2018-12-07T15:37:43.055Z,930.84
2018-12-07T15:38:43.098Z,930.81
2018-12-07T15:39:44.439Z,930.78
2018-12-07T15:40:45.625Z,930.74
2018-12-07T15:41:46.656Z,930.77
2018-12-07T15:42:47.256Z,930.71
2018-12-07T15:43:48.198Z,930.66
2018-12-07T15:44:49.085Z,930.65
2018-12-07T15:45:49.228Z,930.66
2018-12-07T15:46:49.674Z,930.62
2018-12-07T15:47:50.171Z,930.58
2018-12-07T15:48:51.285Z,930.55
2018-12-07T15:49:51.978Z,930.53
2018-12-07T15:50:53.033Z,930.47
2018-12-07T15:51:54.118Z,930.42
2018-12-07T15:52:55.571Z,930.38
2018-12-07T15:53:56.191Z,930.31
2018-12-07T15:54:56.734Z,930.27
2018-12-07T15:55:58.090Z,930.26
2018-12-07T15:56:58.863Z,930.21
2018-12-07T15:57:59.138Z,930.23
2018-12-07T15:58:59.511Z,930.16
2018-12-07T16:00:00.247Z,930.14
2018-12-07T16:01:01.751Z,930.13
2018-12-07T16:02:03.188Z,930.11
2018-12-07T16:03:04.031Z,930.16
2018-12-07T16:04:04.989Z,930.18
2018-12-07T16:05:06.041Z,930.2
2018-12-07T16:06:06.793Z,930.22
2018-12-07T16:07:08.251Z,930.18
2018-12-07T16:08:08.418Z,930.17
2018-12-07T16:09:09.468Z,930.12
2018-12-07T16:10:11.628Z,930.07
2018-12-07T16:11:12.104Z,930.02
2018-12-07T16:12:13.246Z,929.9
2018-12-07T16:13:14.532Z,929.93
2018-12-07T16:14:15.312Z,929.89
2018-12-07T16:15:16.505Z,929.85
2018-12-07T16:16:17.316Z,929.84
2018-12-07T16:17:17.798Z,929.83
2018-12-07T16:18:18.663Z,929.87
2018-12-07T16:19:19.977Z,929.84
2018-12-07T16:20:20.755Z,929.78
2018-12-07T16:21:21.499Z,929.72
2018-12-07T16:22:22.236Z,929.68
2018-12-07T16:23:09.209Z,929.65
2018-12-07T16:24:10.160Z,929.64
2018-12-07T16:25:10.912Z,929.61
2018-12-07T16:26:11.578Z,929.62
2018-12-07T16:27:12.305Z,929.58
2018-12-07T16:28:13.194Z,929.49
2018-12-07T16:29:13.566Z,929.4
2018-12-07T16:30:14.227Z,929.41
2018-12-07T16:31:15.440Z,929.33
2018-12-07T16:32:17.709Z,929.31
2018-12-07T16:33:16.900Z,929.27
2018-12-07T16:34:17.539Z,929.24
2018-12-07T16:35:18.819Z,929.25
2018-12-07T16:36:19.199Z,929.2
2018-12-07T16:37:20.374Z,929.17
2018-12-07T16:38:21.145Z,929.14
2018-12-07T16:39:22.251Z,929.05
2018-12-07T16:40:22.692Z,929.1
2018-12-07T16:41:22.918Z,929.11
2018-12-07T16:42:23.391Z,929.16
2018-12-07T16:43:24.761Z,929.2
2018-12-07T16:44:25.113Z,929.29
2018-12-07T16:45:26.224Z,929.37
2018-12-07T16:46:26.669Z,929.37
2018-12-07T16:47:30.151Z,929.41
2018-12-07T16:47:40.551Z,929.4
2018-12-07T16:48:41.081Z,929.41
2018-12-07T16:49:42.200Z,929.36
2018-12-07T16:50:43.064Z,929.29
2018-12-07T16:51:44.203Z,929.21
2018-12-07T16:52:44.890Z,929.17
2018-12-07T16:53:45.570Z,929.17
2018-12-07T16:54:46.085Z,929.15
2018-12-07T16:55:46.928Z,929.09
2018-12-07T16:56:47.863Z,929.06
2018-12-07T16:57:48.755Z,929
2018-12-07T16:58:49.849Z,928.99
2018-12-07T16:59:51.003Z,928.97
2018-12-07T17:00:51.484Z,928.92
2018-12-07T17:01:52.301Z,928.87
2018-12-07T17:02:52.703Z,928.86
2018-12-07T17:03:53.392Z,928.79
2018-12-07T17:04:54.524Z,928.8
2018-12-07T17:05:55.539Z,928.78
2018-12-07T17:06:57.135Z,928.78
2018-12-07T17:07:57.506Z,928.76
2018-12-07T17:08:57.948Z,928.73
2018-12-07T17:09:59.077Z,928.68
2018-12-07T17:10:59.853Z,928.69
2018-12-07T17:12:00.665Z,928.69
2018-12-07T17:13:01.508Z,928.67
2018-12-07T17:14:02.685Z,928.64
2018-12-07T17:15:03.595Z,928.58
2018-12-07T17:16:05.038Z,928.6
2018-12-07T17:17:06.364Z,928.55
2018-12-07T17:18:06.773Z,928.54
2018-12-07T17:19:08.106Z,928.55
2018-12-07T17:20:09.140Z,928.59
2018-12-07T17:21:10.857Z,928.61
2018-12-07T17:22:11.591Z,928.66
2018-12-07T17:23:12.689Z,928.72
2018-12-07T17:24:13.287Z,928.76
2018-12-07T17:25:14.233Z,928.75
2018-12-07T17:26:15.436Z,928.78
2018-12-07T17:27:16.393Z,928.77
2018-12-07T17:28:17.516Z,928.72
2018-12-07T17:29:18.142Z,928.7
2018-12-07T17:30:19.051Z,928.72
2018-12-07T17:31:19.523Z,928.73
2018-12-07T17:32:20.887Z,928.69
2018-12-07T17:33:21.730Z,928.68
2018-12-07T17:34:22.298Z,928.65
2018-12-07T17:35:22.844Z,928.7
2018-12-07T17:36:24.399Z,928.69
2018-12-07T17:37:25.020Z,928.69
2018-12-07T17:38:25.556Z,928.7
2018-12-07T17:39:26.427Z,928.69
2018-12-07T17:40:26.714Z,928.68
2018-12-07T17:41:27.010Z,928.69
2018-12-07T17:42:30.380Z,928.75
2018-12-07T17:43:31.735Z,928.77
2018-12-07T17:44:32.456Z,928.75
2018-12-07T17:45:33.934Z,928.72
2018-12-07T17:46:34.261Z,928.71
2018-12-07T17:47:34.797Z,928.73
2018-12-07T17:48:35.713Z,928.7
2018-12-07T17:49:36.762Z,928.66
2018-12-07T17:50:37.974Z,928.73
2018-12-07T17:51:39.093Z,928.72
2018-12-07T17:52:39.577Z,928.7
2018-12-07T17:53:40.455Z,928.66
2018-12-07T17:54:41.759Z,928.65
2018-12-07T17:55:43.076Z,928.67
2018-12-07T17:56:43.421Z,928.7
2018-12-07T17:57:44.445Z,928.74
2018-12-07T17:58:45.655Z,928.74
2018-12-07T17:59:46.573Z,928.75
2018-12-07T18:00:47.336Z,928.78
2018-12-07T18:01:48.015Z,928.85
2018-12-07T18:02:48.421Z,928.88
2018-12-07T18:03:48.827Z,928.75
2018-12-07T18:04:49.824Z,928.53
2018-12-07T18:05:51.335Z,928.4
2018-12-07T18:06:52.347Z,928.37
2018-12-07T18:07:52.981Z,928.43
2018-12-07T18:08:54.095Z,928.51
2018-12-07T18:09:54.883Z,928.58
2018-12-07T18:10:56.137Z,928.63
2018-12-07T18:11:57.201Z,928.69
2018-12-07T18:12:58.280Z,928.75
2018-12-07T18:13:59.220Z,928.83
2018-12-07T18:15:00.454Z,928.88
2018-12-07T18:16:01.224Z,928.97
2018-12-07T18:17:02.317Z,928.96
2018-12-07T18:18:03.708Z,929.01
2018-12-07T18:19:04.703Z,929.07
2018-12-07T18:20:05.366Z,929.07